Time;durP1;ratioP1;P1;durP2;ratioP2;P2;SDS_P1;SDS_P2;PMS_P1;PMS_P2;Temp;Humidity;BMP_temperature;BMP_pressure;BME280_temperature;BME280_humidity;BME280_pressure;Samples;Min_cycle;Max_cycle;Signal;HPM_P1;HPM_P2
2023/05/30 00:01:24;;;;;;;3.67;2.75;;;19.50;99.90;;;;;;5053262;28;20250;-76
2023/05/30 00:03:52;;;;;;;5.18;3.53;;;19.60;99.90;;;;;;5052606;28;20261;-75
2023/05/30 00:06:19;;;;;;;4.57;3.38;;;19.50;99.90;;;;;;5052381;28;20302;-74
2023/05/30 00:08:46;;;;;;;4.68;2.78;;;19.60;99.90;;;;;;5052128;28;20253;-74
2023/05/30 00:11:14;;;;;;;3.72;3.35;;;19.60;99.90;;;;;;5052906;28;20239;-74
2023/05/30 00:13:43;;;;;;;4.55;2.92;;;19.60;99.90;;;;;;5052089;28;20206;-75
2023/05/30 00:16:11;;;;;;;7.03;2.80;;;19.60;99.90;;;;;;5052575;28;20701;-74
2023/05/30 00:18:38;;;;;;;3.10;2.75;;;19.50;99.90;;;;;;5052446;28;20199;-74
2023/05/30 00:21:06;;;;;;;4.75;3.75;;;19.40;99.90;;;;;;5052369;28;20234;-75
2023/05/30 00:23:35;;;;;;;6.63;3.95;;;19.30;99.90;;;;;;5052276;28;20317;-75
2023/05/30 00:26:03;;;;;;;4.53;2.80;;;19.40;99.90;;;;;;5052351;28;20242;-74
2023/05/30 00:28:31;;;;;;;5.60;3.15;;;19.40;99.90;;;;;;5052330;28;20210;-74
2023/05/30 00:30:58;;;;;;;4.00;2.85;;;19.40;99.90;;;;;;5052079;28;20670;-76
2023/05/30 00:33:25;;;;;;;5.75;3.25;;;19.30;99.90;;;;;;5052524;28;20210;-75
2023/05/30 00:35:52;;;;;;;5.70;3.17;;;19.10;99.90;;;;;;5052255;28;20207;-74
2023/05/30 00:38:20;;;;;;;4.57;3.03;;;19.10;99.90;;;;;;5052424;28;20238;-75
2023/05/30 00:40:47;;;;;;;3.55;2.22;;;19.10;99.90;;;;;;5051898;28;20207;-75
2023/05/30 00:43:15;;;;;;;4.78;2.30;;;19.10;99.90;;;;;;5052062;28;20648;-73
2023/05/30 00:45:44;;;;;;;7.53;3.30;;;19.10;99.90;;;;;;5051513;28;20294;-76
2023/05/30 00:48:11;;;;;;;6.75;2.88;;;19.10;99.90;;;;;;5051801;28;20704;-76
2023/05/30 00:50:39;;;;;;;3.20;2.45;;;19.00;99.90;;;;;;5051883;28;20214;-77
2023/05/30 00:53:07;;;;;;;3.40;3.00;;;19.00;99.90;;;;;;5051995;28;20246;-76
2023/05/30 00:55:34;;;;;;;6.22;3.45;;;19.10;99.90;;;;;;5051641;28;20237;-75
2023/05/30 00:58:01;;;;;;;4.43;2.85;;;19.10;99.90;;;;;;5051547;28;20726;-74
2023/05/30 01:00:29;;;;;;;4.60;3.17;;;19.10;99.90;;;;;;5051813;28;20671;-75
2023/05/30 01:02:59;;;;;;;4.00;3.08;;;19.10;99.90;;;;;;5051583;28;20245;-74
2023/05/30 01:05:27;;;;;;;3.50;2.75;;;19.00;99.90;;;;;;5051857;28;20206;-73
2023/05/30 01:07:54;;;;;;;4.53;3.70;;;19.00;99.90;;;;;;5051976;28;20211;-74
2023/05/30 01:10:22;;;;;;;5.40;2.53;;;19.00;99.90;;;;;;5051741;28;20265;-74
2023/05/30 01:13:04;;;;;;;4.03;3.08;;;18.90;99.90;;;;;;5050912;28;20432;-77
2023/05/30 01:15:33;;;;;;;4.35;2.58;;;18.90;99.90;;;;;;5051061;28;20254;-77
2023/05/30 01:18:05;;;;;;;3.63;3.05;;;19.00;99.90;;;;;;5050727;28;20643;-74
2023/05/30 01:20:36;;;;;;;3.13;2.83;;;19.00;99.90;;;;;;5050829;28;20246;-75
2023/05/30 01:23:22;;;;;;;4.35;3.30;;;18.90;99.90;;;;;;5051188;28;20288;-74
2023/05/30 01:26:01;;;;;;;4.20;2.75;;;18.90;99.90;;;;;;5050470;28;20654;-76
2023/05/30 01:28:32;;;;;;;5.43;3.15;;;18.70;99.90;;;;;;5051470;28;20589;-77
2023/05/30 01:31:00;;;;;;;3.10;2.38;;;18.70;99.90;;;;;;5051435;28;20211;-77
2023/05/30 01:33:28;;;;;;;6.00;2.85;;;18.70;99.90;;;;;;5051185;28;20238;-77
2023/05/30 01:35:55;;;;;;;3.70;2.95;;;18.70;99.90;;;;;;5051418;28;20207;-78
2023/05/30 01:38:22;;;;;;;5.03;3.17;;;18.70;99.90;;;;;;5051383;28;20237;-73
2023/05/30 01:40:52;;;;;;;3.83;2.75;;;18.70;99.90;;;;;;5050494;28;20257;-74
2023/05/30 01:43:28;;;;;;;3.70;3.25;;;18.70;99.90;;;;;;5051261;28;20262;-73
2023/05/30 01:46:03;;;;;;;4.85;3.42;;;18.70;99.90;;;;;;5051223;28;20285;-75
2023/05/30 01:48:40;;;;;;;5.13;3.33;;;18.70;99.90;;;;;;5050624;28;20305;-73
2023/05/30 01:51:13;;;;;;;5.03;3.00;;;18.70;99.90;;;;;;5048809;28;20202;-77
2023/05/30 01:53:43;;;;;;;6.00;3.72;;;18.70;99.90;;;;;;5050491;28;20265;-77
2023/05/30 01:56:14;;;;;;;4.95;3.15;;;18.70;99.90;;;;;;5050477;28;20261;-75
2023/05/30 01:58:43;;;;;;;3.95;2.85;;;18.70;99.90;;;;;;5050823;28;20620;-73
2023/05/30 02:01:12;;;;;;;7.53;3.63;;;18.60;99.90;;;;;;5050589;28;20238;-74
2023/05/30 02:03:39;;;;;;;6.55;3.55;;;18.60;99.90;;;;;;5049999;28;20288;-74
2023/05/30 02:06:06;;;;;;;3.15;2.80;;;18.60;99.90;;;;;;5050658;28;20211;-76
2023/05/30 02:08:33;;;;;;;3.97;3.17;;;18.50;99.90;;;;;;5050269;28;20682;-76
2023/05/30 02:11:00;;;;;;;4.25;3.22;;;18.50;99.90;;;;;;5050301;28;20246;-74
2023/05/30 02:13:27;;;;;;;3.17;2.45;;;18.50;99.90;;;;;;5050580;28;20241;-74
2023/05/30 02:15:54;;;;;;;5.30;3.15;;;18.50;99.90;;;;;;5050530;28;20206;-75
2023/05/30 02:18:27;;;;;;;6.15;4.13;;;18.40;99.90;;;;;;5051269;28;20207;-75
2023/05/30 02:20:54;;;;;;;4.03;3.17;;;18.40;99.90;;;;;;5050357;28;20207;-76
2023/05/30 02:23:21;;;;;;;3.47;2.75;;;18.40;99.90;;;;;;5050391;28;20245;-76
2023/05/30 02:25:48;;;;;;;4.35;3.22;;;18.50;99.90;;;;;;5049592;28;20679;-75
2023/05/30 02:28:15;;;;;;;4.18;2.60;;;18.50;99.90;;;;;;5050025;28;20678;-74
2023/05/30 02:30:41;;;;;;;4.93;2.92;;;18.60;99.90;;;;;;5050295;28;20249;-75
2023/05/30 02:33:08;;;;;;;3.85;2.70;;;18.60;99.90;;;;;;5050194;28;20238;-76
2023/05/30 02:35:37;;;;;;;4.30;3.45;;;18.60;99.90;;;;;;5050097;28;20665;-76
2023/05/30 02:38:03;;;;;;;4.03;3.17;;;18.60;99.90;;;;;;5050097;28;20635;-76
2023/05/30 02:40:30;;;;;;;5.50;3.30;;;18.70;99.90;;;;;;5049722;28;20234;-74
2023/05/30 02:42:58;;;;;;;4.95;3.03;;;18.80;99.90;;;;;;5050257;28;20239;-76
2023/05/30 02:45:25;;;;;;;5.63;4.05;;;18.80;99.90;;;;;;5050418;28;20681;-77
2023/05/30 02:47:52;;;;;;;3.92;2.88;;;18.80;99.90;;;;;;5064193;28;20210;-77
2023/05/30 02:50:19;;;;;;;4.28;3.67;;;18.80;99.90;;;;;;5050557;28;20242;-77
2023/05/30 02:52:47;;;;;;;4.97;3.05;;;18.80;99.90;;;;;;5049666;28;20546;-76
2023/05/30 02:55:14;;;;;;;5.80;3.90;;;18.70;99.90;;;;;;5050106;28;20231;-75
2023/05/30 02:57:42;;;;;;;3.78;3.10;;;18.70;99.90;;;;;;5049492;28;20577;-76
2023/05/30 03:00:13;;;;;;;3.10;2.80;;;18.70;99.90;;;;;;5050020;28;20651;-77
2023/05/30 03:02:41;;;;;;;5.35;3.63;;;18.70;99.90;;;;;;5049469;28;20214;-78
2023/05/30 03:05:10;;;;;;;6.65;4.68;;;18.70;99.90;;;;;;5049899;28;20615;-77
2023/05/30 03:07:37;;;;;;;5.32;3.33;;;18.70;99.90;;;;;;5049583;28;20211;-77
2023/05/30 03:10:06;;;;;;;4.90;4.13;;;18.70;99.90;;;;;;5049890;28;20235;-76
2023/05/30 03:12:33;;;;;;;5.22;3.00;;;18.70;99.90;;;;;;5049228;28;20709;-77
2023/05/30 03:15:00;;;;;;;5.32;4.20;;;18.70;99.90;;;;;;5050375;28;20235;-77
2023/05/30 03:17:27;;;;;;;6.80;3.60;;;18.70;99.90;;;;;;5050012;28;20202;-77
2023/05/30 03:19:54;;;;;;;5.82;4.13;;;18.70;99.90;;;;;;5050198;28;20207;-78
2023/05/30 03:22:21;;;;;;;5.15;4.15;;;18.80;99.90;;;;;;5049550;28;20210;-77
2023/05/30 03:24:48;;;;;;;5.00;4.05;;;18.80;99.90;;;;;;5049648;28;20300;-77
2023/05/30 03:27:16;;;;;;;6.57;4.80;;;18.70;99.90;;;;;;5049755;28;20270;-77
2023/05/30 03:29:43;;;;;;;7.68;4.38;;;18.60;99.90;;;;;;5049617;28;20288;-77
2023/05/30 03:32:10;;;;;;;8.18;3.75;;;18.60;99.90;;;;;;5050154;28;20245;-79
2023/05/30 03:34:37;;;;;;;4.13;3.72;;;18.60;99.90;;;;;;5049315;28;20235;-78
2023/05/30 03:37:05;;;;;;;4.95;4.43;;;18.60;99.90;;;;;;5049423;28;20590;-78
2023/05/30 03:39:32;;;;;;;5.00;3.47;;;18.50;99.90;;;;;;5049424;28;20239;-78
2023/05/30 03:41:59;;;;;;;5.07;4.25;;;18.50;99.90;;;;;;5051944;28;20246;-77
2023/05/30 03:44:27;;;;;;;4.18;3.40;;;18.50;99.90;;;;;;5053598;28;20277;-75
2023/05/30 03:46:54;;;;;;;4.53;3.85;;;18.40;99.90;;;;;;5053436;28;20253;-76
2023/05/30 03:49:21;;;;;;;6.38;4.13;;;18.30;99.90;;;;;;5053107;28;20218;-77
2023/05/30 03:51:48;;;;;;;4.63;4.03;;;18.30;99.90;;;;;;5052250;28;20701;-75
2023/05/30 03:54:15;;;;;;;4.32;3.55;;;18.30;99.90;;;;;;5053260;28;20744;-75
2023/05/30 03:56:41;;;;;;;4.53;3.95;;;18.20;99.90;;;;;;5052890;28;20207;-77
2023/05/30 03:59:08;;;;;;;7.88;4.85;;;18.30;99.90;;;;;;5053180;28;20280;-76
2023/05/30 04:01:37;;;;;;;4.47;3.85;;;18.20;99.90;;;;;;5052597;28;20252;-75
2023/05/30 04:04:04;;;;;;;6.20;4.25;;;18.10;99.90;;;;;;5052713;28;20281;-75
2023/05/30 04:06:31;;;;;;;6.78;5.07;;;18.00;99.90;;;;;;5052579;28;20261;-75
2023/05/30 04:09:01;;;;;;;10.43;4.97;;;18.00;99.90;;;;;;5052572;28;20698;-75
2023/05/30 04:11:28;;;;;;;7.82;4.65;;;18.00;99.90;;;;;;5053023;28;20210;-75
2023/05/30 04:13:55;;;;;;;6.38;4.80;;;18.00;99.90;;;;;;5052908;28;20230;-75
2023/05/30 04:16:22;;;;;;;5.68;4.10;;;18.10;99.90;;;;;;5052941;28;20245;-75
2023/05/30 04:18:50;;;;;;;6.60;4.97;;;18.10;99.90;;;;;;5051886;28;20281;-78
2023/05/30 04:21:17;;;;;;;6.60;4.38;;;18.10;99.90;;;;;;5052720;28;20268;-74
2023/05/30 04:23:44;;;;;;;7.05;4.32;;;18.20;99.90;;;;;;5052088;28;20249;-73
2023/05/30 04:26:11;;;;;;;4.53;4.10;;;18.10;99.90;;;;;;5052350;28;20230;-75
2023/05/30 04:28:39;;;;;;;6.95;4.28;;;18.20;99.90;;;;;;5051936;28;20300;-76
2023/05/30 04:31:06;;;;;;;5.20;3.80;;;18.20;99.90;;;;;;5052216;28;20213;-74
2023/05/30 04:33:35;;;;;;;7.40;5.03;;;18.20;99.90;;;;;;5051883;28;20238;-78
2023/05/30 04:36:06;;;;;;;7.45;4.35;;;18.20;99.90;;;;;;5052005;28;20211;-77
2023/05/30 04:38:34;;;;;;;7.50;4.30;;;18.30;99.90;;;;;;5051873;28;20203;-75
2023/05/30 04:41:02;;;;;;;4.80;4.32;;;18.30;99.90;;;;;;5052274;28;20214;-77
2023/05/30 04:43:29;;;;;;;7.13;5.32;;;18.30;99.90;;;;;;5051791;28;20202;-74
2023/05/30 04:46:00;;;;;;;11.13;7.05;;;18.30;99.90;;;;;;5052386;28;20258;-74
2023/05/30 04:48:27;;;;;;;10.68;7.20;;;18.20;99.90;;;;;;5052005;28;20219;-77
2023/05/30 04:50:54;;;;;;;15.07;8.80;;;18.00;99.90;;;;;;5052361;28;20648;-79
2023/05/30 04:53:23;;;;;;;12.07;8.48;;;17.80;99.90;;;;;;5051451;28;20265;-77
2023/05/30 04:55:50;;;;;;;11.80;7.50;;;17.80;99.90;;;;;;5051188;28;20249;-78
2023/05/30 04:58:17;;;;;;;11.93;8.23;;;17.80;99.90;;;;;;5051634;28;20242;-77
2023/05/30 05:00:44;;;;;;;9.63;7.55;;;17.80;99.90;;;;;;5051260;28;20238;-77
2023/05/30 05:03:11;;;;;;;8.32;6.15;;;18.00;99.90;;;;;;5051578;28;20245;-77
2023/05/30 05:05:38;;;;;;;12.65;7.70;;;18.00;99.90;;;;;;5051107;28;20231;-77
2023/05/30 05:08:05;;;;;;;7.55;4.65;;;18.10;99.90;;;;;;5051628;28;20207;-77
2023/05/30 05:10:34;;;;;;;6.40;4.75;;;18.20;99.90;;;;;;5051208;28;20290;-77
2023/05/30 05:13:01;;;;;;;5.05;4.10;;;18.30;99.90;;;;;;5051615;28;20687;-78
2023/05/30 05:15:27;;;;;;;9.07;5.00;;;18.30;99.90;;;;;;5051384;28;20210;-75
2023/05/30 05:17:54;;;;;;;7.50;4.18;;;18.30;99.90;;;;;;5052043;28;20628;-78
2023/05/30 05:20:21;;;;;;;5.18;4.35;;;18.40;99.90;;;;;;5052075;28;20348;-77
2023/05/30 05:22:48;;;;;;;6.63;3.83;;;18.30;99.90;;;;;;5051085;28;20206;-77
2023/05/30 05:25:15;;;;;;;6.78;4.50;;;18.40;99.90;;;;;;5051143;28;20304;-77
2023/05/30 05:27:44;;;;;;;7.20;4.20;;;18.40;99.90;;;;;;5050665;28;20242;-78
2023/05/30 05:30:12;;;;;;;5.80;4.63;;;18.40;99.90;;;;;;5051246;28;20714;-80
2023/05/30 05:32:40;;;;;;;5.22;4.18;;;18.40;99.90;;;;;;5050622;28;20276;-78
2023/05/30 05:35:08;;;;;;;12.82;4.80;;;18.40;99.90;;;;;;5051262;28;20203;-78
2023/05/30 05:37:35;;;;;;;7.93;6.15;;;18.40;99.90;;;;;;5064568;28;20255;-78
2023/05/30 05:40:05;;;;;;;6.78;4.93;;;18.40;99.90;;;;;;5051015;28;20203;-78
2023/05/30 05:42:33;;;;;;;5.07;4.57;;;18.50;99.90;;;;;;5050964;28;20203;-78
2023/05/30 05:45:01;;;;;;;7.53;3.88;;;18.60;99.90;;;;;;5051162;28;20262;-78
2023/05/30 05:47:28;;;;;;;6.55;4.60;;;18.70;99.90;;;;;;5050837;28;20645;-76
2023/05/30 05:49:55;;;;;;;8.55;3.33;;;18.70;99.90;;;;;;5050831;28;20249;-75
2023/05/30 05:52:22;;;;;;;4.95;3.97;;;18.70;99.90;;;;;;5051068;28;20206;-76
2023/05/30 05:54:49;;;;;;;6.53;4.07;;;18.70;99.90;;;;;;5050439;28;20254;-77
2023/05/30 05:57:16;;;;;;;6.05;3.70;;;18.60;99.90;;;;;;5051099;28;20206;-75
2023/05/30 05:59:43;;;;;;;5.47;3.47;;;18.70;99.90;;;;;;5049911;28;20238;-77
2023/05/30 06:02:11;;;;;;;6.63;3.10;;;18.70;99.90;;;;;;5050363;28;20246;-76
2023/05/30 06:04:38;;;;;;;5.65;3.53;;;18.70;99.90;;;;;;5049747;28;20238;-75
2023/05/30 06:07:06;;;;;;;4.53;3.70;;;18.70;99.90;;;;;;5050685;28;20682;-77
2023/05/30 06:09:34;;;;;;;5.78;3.72;;;18.60;99.90;;;;;;5050422;28;20293;-75
2023/05/30 06:12:01;;;;;;;4.97;3.47;;;18.60;99.90;;;;;;5050471;28;20280;-77
2023/05/30 06:14:29;;;;;;;5.32;3.50;;;18.60;99.90;;;;;;5050847;28;20261;-76
2023/05/30 06:16:55;;;;;;;5.47;3.75;;;18.70;99.90;;;;;;5050455;28;20206;-74
2023/05/30 06:19:24;;;;;;;6.60;3.45;;;18.60;99.90;;;;;;5050611;28;20238;-75
2023/05/30 06:21:51;;;;;;;4.22;3.83;;;18.70;99.90;;;;;;5049884;28;20210;-75
2023/05/30 06:24:18;;;;;;;4.40;3.65;;;18.80;99.90;;;;;;5050676;28;20252;-75
2023/05/30 06:26:45;;;;;;;5.80;3.35;;;18.90;99.90;;;;;;5049793;28;20730;-75
2023/05/30 06:29:11;;;;;;;8.35;4.07;;;19.00;99.90;;;;;;5050536;28;20304;-76
2023/05/30 06:31:38;;;;;;;6.45;4.07;;;19.10;99.90;;;;;;5049632;28;20238;-75
2023/05/30 06:34:05;;;;;;;6.80;3.90;;;19.20;99.90;;;;;;5050243;28;20237;-76
2023/05/30 06:36:34;;;;;;;7.25;3.75;;;19.20;99.90;;;;;;5049957;28;20227;-78
2023/05/30 06:39:01;;;;;;;4.85;3.42;;;19.20;99.90;;;;;;5050324;28;20257;-75
2023/05/30 06:41:27;;;;;;;4.20;3.28;;;19.20;99.90;;;;;;5050308;28;20210;-76
2023/05/30 06:43:54;;;;;;;3.97;3.35;;;19.20;99.90;;;;;;5050441;28;20292;-76
2023/05/30 06:46:21;;;;;;;5.65;3.58;;;19.40;99.90;;;;;;5050265;28;20266;-77
2023/05/30 06:48:48;;;;;;;4.57;3.75;;;19.50;99.90;;;;;;5049643;28;20816;-77
2023/05/30 06:51:15;;;;;;;7.35;3.67;;;19.70;99.90;;;;;;5064280;28;20246;-77
2023/05/30 06:53:43;;;;;;;6.72;3.72;;;19.80;99.90;;;;;;5049920;28;20265;-76
2023/05/30 06:56:10;;;;;;;3.90;3.55;;;20.10;99.90;;;;;;5050004;28;20234;-76
2023/05/30 06:58:37;;;;;;;5.45;3.63;;;20.50;99.90;;;;;;5049794;28;20241;-75
2023/05/30 07:01:04;;;;;;;6.72;4.25;;;20.50;99.90;;;;;;5049732;28;20679;-77
2023/05/30 07:03:31;;;;;;;7.53;4.28;;;20.50;99.90;;;;;;5049297;28;20218;-76
2023/05/30 07:06:00;;;;;;;5.13;4.07;;;20.70;99.90;;;;;;5049985;28;20282;-74
2023/05/30 07:08:27;;;;;;;8.45;3.63;;;20.60;99.90;;;;;;5050121;28;20238;-75
2023/05/30 07:10:56;;;;;;;6.13;3.17;;;20.50;99.90;;;;;;5036345;28;20207;-78
2023/05/30 07:13:23;;;;;;;7.28;4.00;;;20.40;99.90;;;;;;5050166;28;20211;-76
2023/05/30 07:15:50;;;;;;;6.50;4.10;;;20.30;99.90;;;;;;5049763;28;20234;-77
2023/05/30 07:18:16;;;;;;;6.95;4.50;;;20.10;99.90;;;;;;5054096;28;20211;-76
2023/05/30 07:20:43;;;;;;;4.93;4.45;;;20.20;99.90;;;;;;5053050;28;20231;-76
2023/05/30 07:23:10;;;;;;;7.65;4.32;;;20.20;99.90;;;;;;5053949;28;20307;-77
2023/05/30 07:25:37;;;;;;;3.83;3.47;;;20.00;99.90;;;;;;5053139;28;20277;-77
2023/05/30 07:28:05;;;;;;;5.43;3.90;;;20.10;99.90;;;;;;5053435;28;20662;-76
2023/05/30 07:30:32;;;;;;;6.38;3.47;;;20.30;99.90;;;;;;5053227;28;20307;-76
2023/05/30 07:32:59;;;;;;;4.35;3.83;;;20.60;99.90;;;;;;5053710;28;20234;-75
2023/05/30 07:35:26;;;;;;;8.60;4.00;;;20.70;99.90;;;;;;5053418;28;20253;-75
2023/05/30 07:37:53;;;;;;;5.30;4.10;;;20.70;99.90;;;;;;5053236;28;20231;-76
2023/05/30 07:40:20;;;;;;;6.82;4.40;;;20.90;99.90;;;;;;5053357;28;20206;-75
2023/05/30 07:42:47;;;;;;;6.78;4.78;;;20.90;99.90;;;;;;5052380;28;20238;-78
2023/05/30 07:45:16;;;;;;;6.68;4.20;;;20.80;99.90;;;;;;5053438;28;20233;-76
2023/05/30 07:47:43;;;;;;;6.20;4.70;;;20.90;99.90;;;;;;5052806;28;20207;-77
2023/05/30 07:50:11;;;;;;;5.38;3.50;;;20.90;99.90;;;;;;5053265;28;20306;-76
2023/05/30 07:52:38;;;;;;;7.93;4.10;;;21.10;99.90;;;;;;5053013;28;20260;-75
2023/05/30 07:55:05;;;;;;;6.20;3.67;;;21.30;99.90;;;;;;5053037;28;20207;-77
2023/05/30 07:57:32;;;;;;;6.88;3.90;;;21.40;99.90;;;;;;5052355;28;20238;-77
2023/05/30 07:59:59;;;;;;;4.15;3.75;;;21.50;99.90;;;;;;5052852;28;20269;-76
2023/05/30 08:02:27;;;;;;;4.63;3.85;;;21.70;99.90;;;;;;5053089;28;20297;-74
2023/05/30 08:04:54;;;;;;;6.53;3.80;;;22.10;99.90;;;;;;5053476;28;20260;-76
2023/05/30 08:07:21;;;;;;;5.80;3.83;;;22.20;99.90;;;;;;5053033;28;20320;-78
2023/05/30 08:09:48;;;;;;;5.45;3.83;;;22.20;99.90;;;;;;5052336;28;20257;-77
2023/05/30 08:12:19;;;;;;;7.78;4.25;;;22.30;99.90;;;;;;5052520;28;20203;-77
2023/05/30 08:14:47;;;;;;;5.65;3.47;;;22.30;99.90;;;;;;5052641;28;20214;-78
2023/05/30 08:17:16;;;;;;;7.68;3.83;;;22.40;99.90;;;;;;5052498;28;20253;-76
2023/05/30 08:19:44;;;;;;;4.80;3.63;;;22.50;99.90;;;;;;5052356;28;20206;-77
2023/05/30 08:22:12;;;;;;;7.13;4.30;;;22.60;99.90;;;;;;5052325;28;20211;-77
2023/05/30 08:24:41;;;;;;;3.80;3.17;;;22.60;99.90;;;;;;5052204;28;20199;-77
2023/05/30 08:27:10;;;;;;;10.43;5.30;;;22.90;99.90;;;;;;5052106;28;20234;-76
2023/05/30 08:29:38;;;;;;;4.63;4.13;;;23.00;99.90;;;;;;5052043;28;20666;-78
2023/05/30 08:32:06;;;;;;;8.88;4.50;;;22.80;99.90;;;;;;5052628;28;20249;-78
2023/05/30 08:34:34;;;;;;;8.82;4.10;;;22.90;99.90;;;;;;5051753;28;20257;-76
2023/05/30 08:37:03;;;;;;;6.63;3.28;;;22.90;99.90;;;;;;5063389;28;20206;-78
2023/05/30 08:39:31;;;;;;;6.20;3.22;;;23.60;99.90;;;;;;5054128;28;20246;-77
2023/05/30 08:42:01;;;;;;;6.47;4.30;;;23.70;99.90;;;;;;5052074;28;20203;-78
2023/05/30 08:44:28;;;;;;;5.32;3.60;;;23.70;99.90;;;;;;5054531;28;20268;-78
2023/05/30 08:46:57;;;;;;;7.35;3.60;;;24.10;99.90;;;;;;5063789;28;20235;-76
2023/05/30 08:49:25;;;;;;;5.63;3.33;;;24.90;99.90;;;;;;5052033;28;20249;-78
2023/05/30 08:51:53;;;;;;;4.57;3.45;;;26.20;99.90;;;;;;5052122;28;20235;-78
2023/05/30 08:54:23;;;;;;;4.20;3.25;;;25.60;99.90;;;;;;5052276;28;20206;-78
2023/05/30 08:56:56;;;;;;;4.45;4.05;;;25.00;99.90;;;;;;5051177;28;20238;-78
2023/05/30 08:59:26;;;;;;;5.20;3.42;;;24.90;99.90;;;;;;5051971;28;20210;-76
2023/05/30 09:01:55;;;;;;;5.03;2.83;;;24.80;99.90;;;;;;5051533;28;20595;-77
2023/05/30 09:04:24;;;;;;;5.47;3.20;;;25.20;99.90;;;;;;5052273;28;20301;-76
2023/05/30 09:06:54;;;;;;;4.57;3.78;;;25.90;99.90;;;;;;5051298;28;20656;-76
2023/05/30 09:09:23;;;;;;;5.43;3.17;;;26.30;99.90;;;;;;5052090;28;20294;-79
2023/05/30 09:11:51;;;;;;;3.53;3.22;;;26.40;99.90;;;;;;5051125;28;20704;-78
2023/05/30 09:14:18;;;;;;;6.25;3.08;;;26.10;99.90;;;;;;5051701;28;20235;-77
2023/05/30 09:16:45;;;;;;;3.65;3.00;;;25.80;99.90;;;;;;5051426;28;20253;-77
2023/05/30 09:19:12;;;;;;;4.35;3.08;;;25.90;99.90;;;;;;5051161;28;20245;-77
2023/05/30 09:21:39;;;;;;;4.05;3.10;;;26.20;99.90;;;;;;5051106;28;20741;-76
2023/05/30 09:24:06;;;;;;;3.92;3.30;;;26.60;99.90;;;;;;5050845;28;20207;-79
2023/05/30 09:26:34;;;;;;;4.07;3.50;;;27.60;99.90;;;;;;5051027;28;20231;-79
2023/05/30 09:29:12;;;;;;;7.85;3.25;;;29.30;99.90;;;;;;5050973;28;20238;-79
2023/05/30 09:31:41;;;;;;;5.00;3.40;;;31.00;99.90;;;;;;5050896;28;20259;-78
2023/05/30 09:34:08;;;;;;;6.47;3.72;;;32.00;99.90;;;;;;5051353;28;20210;-79
2023/05/30 09:36:35;;;;;;;7.07;4.07;;;35.40;99.90;;;;;;5050639;28;20245;-79
2023/05/30 09:39:05;;;;;;;4.53;3.65;;;35.20;99.90;;;;;;5050276;28;20206;-78
2023/05/30 09:41:34;;;;;;;7.97;3.40;;;38.40;99.90;;;;;;5050647;28;20209;-79
2023/05/30 09:44:05;;;;;;;6.35;3.60;;;39.30;99.90;;;;;;5050842;28;20233;-79
2023/05/30 09:46:34;;;;;;;4.05;3.65;;;38.00;99.90;;;;;;5050359;28;20230;-83
2023/05/30 09:49:11;;;;;;;4.47;3.28;;;35.20;99.90;;;;;;5050989;28;20210;-78
2023/05/30 09:51:39;;;;;;;4.35;3.45;;;34.90;99.90;;;;;;5050559;28;20284;-77
2023/05/30 09:54:09;;;;;;;8.10;4.28;;;36.00;99.90;;;;;;5050436;28;20249;-77
2023/05/30 09:56:39;;;;;;;4.95;4.18;;;38.80;99.90;;;;;;5050347;28;20216;-77
2023/05/30 09:59:10;;;;;;;6.95;3.05;;;39.90;99.90;;;;;;5050649;28;20201;-78
2023/05/30 10:01:39;;;;;;;5.85;3.70;;;39.70;99.90;;;;;;5050322;28;20257;-77
2023/05/30 10:04:16;;;;;;;5.38;3.58;;;40.50;99.90;;;;;;5044878;28;20224;-77
2023/05/30 10:06:45;;;;;;;4.18;3.78;;;38.60;99.90;;;;;;5037793;28;20260;-79
2023/05/30 10:09:12;;;;;;;4.28;3.90;;;36.10;99.90;;;;;;5050383;28;20210;-78
2023/05/30 10:11:42;;;;;;;6.53;3.72;;;38.50;99.90;;;;;;5050293;28;20202;-78
2023/05/30 10:14:11;;;;;;;5.43;3.50;;;39.60;99.90;;;;;;5050583;28;20210;-78
2023/05/30 10:16:45;;;;;;;4.90;2.70;;;41.20;99.90;;;;;;5050114;28;20212;-78
2023/05/30 10:19:14;;;;;;;4.78;3.20;;;41.60;99.90;;;;;;5050434;28;20240;-78
2023/05/30 10:21:44;;;;;;;3.65;3.35;;;40.90;99.90;;;;;;5049744;28;20271;-78
2023/05/30 10:24:15;;;;;;;4.68;3.47;;;38.50;99.90;;;;;;5050317;28;20210;-78
2023/05/30 10:26:48;;;;;;;4.93;4.28;;;35.50;99.90;;;;;;5050073;28;20316;-79
2023/05/30 10:29:17;;;;;;;4.15;3.75;;;35.30;99.90;;;;;;5050395;28;20241;-77
2023/05/30 10:31:44;;;;;;;4.53;4.13;;;31.60;99.90;;;;;;5049533;28;20208;-78
2023/05/30 10:34:14;;;;;;;4.47;3.42;;;30.70;99.90;;;;;;5050550;28;20241;-78
2023/05/30 10:36:42;;;;;;;5.57;3.75;;;30.50;99.90;;;;;;5049803;28;20212;-79
2023/05/30 10:39:25;;;;;;;5.47;3.63;;;30.00;99.90;;;;;;5050394;28;20301;-79
2023/05/30 10:41:59;;;;;;;3.33;3.03;;;29.40;99.90;;;;;;5050196;28;20287;-79
2023/05/30 10:44:35;;;;;;;5.38;3.83;;;29.70;99.90;;;;;;5050523;28;20237;-76
2023/05/30 10:47:20;;;;;;;5.00;4.40;;;29.20;99.90;;;;;;5049929;28;20294;-78
2023/05/30 10:49:49;;;;;;;4.53;3.63;;;28.30;99.90;;;;;;5049865;28;20291;-77
2023/05/30 10:52:17;;;;;;;3.35;2.95;;;27.10;99.90;;;;;;5053953;28;20648;-78
2023/05/30 10:54:46;;;;;;;4.75;3.35;;;27.60;99.90;;;;;;5053876;28;20289;-79
2023/05/30 10:57:25;;;;;;;5.55;4.05;;;27.80;99.90;;;;;;5053936;28;20268;-78
2023/05/30 10:59:54;;;;;;;4.05;3.58;;;27.90;99.90;;;;;;5054062;28;20206;-79
2023/05/30 11:02:34;;;;;;;4.80;3.33;;;28.20;99.90;;;;;;5054053;28;20210;-78
2023/05/30 11:05:05;;;;;;;4.70;3.58;;;27.70;99.90;;;;;;5053969;28;20210;-79
2023/05/30 11:07:34;;;;;;;7.00;3.55;;;28.10;99.90;;;;;;5039589;28;20718;-78
2023/05/30 11:10:03;;;;;;;5.60;4.28;;;27.80;99.90;;;;;;5054132;28;20221;-78
2023/05/30 11:12:32;;;;;;;4.18;3.78;;;28.10;99.90;;;;;;5053413;28;20280;-78
2023/05/30 11:15:00;;;;;;;3.78;3.47;;;28.10;99.90;;;;;;5053794;28;20217;-79
2023/05/30 11:17:31;;;;;;;3.95;3.50;;;28.40;99.90;;;;;;5053599;28;20230;-75
2023/05/30 11:20:07;;;;;;;6.38;4.82;;;28.60;99.90;;;;;;5053844;28;20203;-80
2023/05/30 11:22:34;;;;;;;5.90;4.50;;;28.70;99.90;;;;;;5053275;28;20206;-79
2023/05/30 11:25:23;;;;;;;4.40;3.75;;;28.20;99.90;;;;;;5053688;28;20284;-82
2023/05/30 11:28:16;;;;;;;4.43;4.03;;;28.20;99.90;;;;;;5052932;28;20718;-78
2023/05/30 11:30:50;;;;;;;5.28;4.03;;;28.40;99.90;;;;;;5053350;28;20210;-76
2023/05/30 11:33:18;;;;;;;5.00;3.72;;;28.20;99.90;;;;;;5053677;28;20234;-80
2023/05/30 11:35:47;;;;;;;6.53;4.82;;;28.20;99.90;;;;;;5052998;28;20707;-78
2023/05/30 11:38:19;;;;;;;5.13;3.45;;;28.10;99.90;;;;;;5053403;28;20215;-79
2023/05/30 11:40:46;;;;;;;5.25;4.03;;;28.20;99.90;;;;;;5053117;28;20215;-78
2023/05/30 11:43:17;;;;;;;4.35;3.95;;;28.30;99.90;;;;;;5053596;28;20202;-80
2023/05/30 11:45:46;;;;;;;4.68;3.00;;;27.90;99.90;;;;;;5053030;28;20207;-79
2023/05/30 11:48:13;;;;;;;4.10;3.67;;;27.80;99.90;;;;;;5053060;28;20235;-81
2023/05/30 11:50:40;;;;;;;3.63;3.33;;;27.90;99.90;;;;;;5052260;28;20242;-79
2023/05/30 11:53:12;;;;;;;6.97;3.53;;;28.00;99.90;;;;;;5052719;28;20242;-75
2023/05/30 11:55:39;;;;;;;6.72;3.33;;;28.10;99.90;;;;;;5052937;28;20218;-74
2023/05/30 11:58:06;;;;;;;3.65;3.25;;;28.40;99.90;;;;;;5052920;28;20257;-73
2023/05/30 12:00:34;;;;;;;4.95;3.85;;;28.60;99.90;;;;;;5052572;28;20660;-73
2023/05/30 12:03:02;;;;;;;4.28;3.53;;;28.50;99.90;;;;;;5052296;28;20641;-74
2023/05/30 12:05:30;;;;;;;3.85;3.40;;;28.40;99.90;;;;;;5051930;28;20714;-74
2023/05/30 12:07:57;;;;;;;4.82;3.78;;;28.10;99.90;;;;;;5053192;28;20725;-74
2023/05/30 12:10:30;;;;;;;4.22;3.78;;;28.30;99.90;;;;;;5053078;28;20252;-77
2023/05/30 12:12:57;;;;;;;4.63;3.70;;;28.10;99.90;;;;;;5052891;28;20241;-76
2023/05/30 12:15:24;;;;;;;9.00;3.72;;;28.00;99.90;;;;;;5053111;28;20242;-74
2023/05/30 12:17:54;;;;;;;4.38;4.07;;;28.20;99.90;;;;;;5052602;28;20742;-78
2023/05/30 12:20:21;;;;;;;4.45;3.10;;;28.30;99.90;;;;;;5052871;28;20215;-75
2023/05/30 12:22:49;;;;;;;4.15;3.03;;;27.80;99.90;;;;;;5052482;28;20617;-78
2023/05/30 12:25:16;;;;;;;5.05;3.88;;;27.80;99.90;;;;;;5052493;28;20552;-73
2023/05/30 12:27:43;;;;;;;7.32;3.72;;;28.20;99.90;;;;;;5052174;28;20301;-75
2023/05/30 12:30:14;;;;;;;4.30;3.70;;;28.50;99.90;;;;;;5052629;28;20207;-78
2023/05/30 12:32:41;;;;;;;5.47;4.22;;;28.10;99.90;;;;;;5051824;28;20199;-77
2023/05/30 12:35:10;;;;;;;8.20;3.50;;;28.10;99.90;;;;;;5052617;28;20322;-80
2023/05/30 12:37:37;;;;;;;4.18;3.08;;;28.40;99.90;;;;;;5052131;28;20207;-77
2023/05/30 12:40:06;;;;;;;4.70;3.75;;;28.60;99.90;;;;;;5052055;28;20231;-77
2023/05/30 12:42:35;;;;;;;3.80;3.50;;;28.70;99.90;;;;;;5051787;28;20213;-76
2023/05/30 12:45:04;;;;;;;5.10;3.45;;;28.60;99.90;;;;;;5051811;28;20293;-78
2023/05/30 12:47:31;;;;;;;4.50;3.50;;;28.40;99.90;;;;;;5051563;28;20772;-78
2023/05/30 12:49:59;;;;;;;5.25;3.70;;;28.40;99.90;;;;;;5051978;28;20257;-76
2023/05/30 12:52:29;;;;;;;4.13;3.72;;;28.60;99.90;;;;;;5052121;28;20670;-74